Time;durP1;ratioP1;P1;durP2;ratioP2;P2;SDS_P1;SDS_P2;PMS_P1;PMS_P2;Temp;Humidity;BMP_temperature;BMP_pressure;BME280_temperature;BME280_humidity;BME280_pressure;Samples;Min_cycle;Max_cycle;Signal;HPM_P1;HPM_P2
2022/06/15 00:00:46;;;;;;;1.80;0.60;;;14.60;94.10;;;;;;6058670;23;20333;-74
2022/06/15 00:03:13;;;;;;;0.52;0.52;;;14.60;94.20;;;;;;6057005;23;20489;-74
2022/06/15 00:05:42;;;;;;;0.65;0.60;;;14.60;94.40;;;;;;6055363;23;20026;-75
2022/06/15 00:08:09;;;;;;;3.33;0.95;;;14.60;95.10;;;;;;6051171;23;20421;-74
2022/06/15 00:10:35;;;;;;;0.95;0.68;;;14.50;95.40;;;;;;6055989;23;20508;-74
2022/06/15 00:13:00;;;;;;;1.48;0.70;;;14.60;95.30;;;;;;6055038;23;20006;-75
2022/06/15 00:15:26;;;;;;;0.75;0.40;;;14.60;95.00;;;;;;6050206;23;20014;-75
2022/06/15 00:17:51;;;;;;;1.38;0.60;;;14.50;94.70;;;;;;6051770;23;20011;-75
2022/06/15 00:20:17;;;;;;;1.17;0.60;;;14.40;94.80;;;;;;6056323;23;20003;-75
2022/06/15 00:22:43;;;;;;;1.80;0.63;;;14.20;95.20;;;;;;6056144;23;20061;-74
2022/06/15 00:25:10;;;;;;;2.00;0.50;;;14.10;95.70;;;;;;6054639;23;20010;-75
2022/06/15 00:27:36;;;;;;;1.63;0.60;;;14.10;95.70;;;;;;6056396;23;20054;-75
2022/06/15 00:30:04;;;;;;;1.40;0.52;;;14.10;96.30;;;;;;6057909;23;20015;-75
2022/06/15 00:32:29;;;;;;;0.93;0.60;;;14.00;96.30;;;;;;6056592;23;20003;-75
2022/06/15 00:34:55;;;;;;;1.55;0.70;;;14.00;96.70;;;;;;6056666;23;20030;-75
2022/06/15 00:37:21;;;;;;;1.38;0.65;;;14.10;96.60;;;;;;6031917;23;20023;-75
2022/06/15 00:39:46;;;;;;;1.13;0.50;;;14.00;96.80;;;;;;6032136;23;20112;-75
2022/06/15 00:42:13;;;;;;;3.30;0.60;;;14.00;96.60;;;;;;6057176;23;20022;-76
2022/06/15 00:44:39;;;;;;;1.25;0.60;;;14.00;97.10;;;;;;6058427;23;20007;-76
2022/06/15 00:47:14;;;;;;;0.60;0.60;;;13.90;96.80;;;;;;6056902;23;20349;-75
2022/06/15 00:49:48;;;;;;;0.50;0.50;;;13.90;97.00;;;;;;6055373;23;20043;-76
2022/06/15 00:52:18;;;;;;;1.80;0.60;;;13.80;97.60;;;;;;6059413;23;20002;-76
2022/06/15 00:54:47;;;;;;;1.10;0.52;;;13.80;97.90;;;;;;6059248;23;20061;-76
2022/06/15 00:57:13;;;;;;;0.60;0.60;;;13.80;98.10;;;;;;6059415;23;19999;-76
2022/06/15 01:00:00;;;;;;;1.42;0.80;;;13.70;98.10;;;;;;6059906;23;20109;-76
2022/06/15 01:02:27;;;;;;;4.03;0.98;;;13.70;98.50;;;;;;6058582;23;20010;-75
2022/06/15 01:05:21;;;;;;;1.05;0.70;;;13.70;97.90;;;;;;6056636;23;20006;-76
2022/06/15 01:08:06;;;;;;;0.68;0.60;;;13.70;98.50;;;;;;6059121;23;20113;-75
2022/06/15 01:10:53;;;;;;;1.45;0.68;;;13.70;98.30;;;;;;6059611;23;20015;-76
2022/06/15 01:13:53;;;;;;;1.65;0.90;;;13.60;98.40;;;;;;6058649;23;20029;-75
2022/06/15 01:16:22;;;;;;;0.70;0.70;;;13.50;98.60;;;;;;6058718;23;20006;-75
2022/06/15 01:19:07;;;;;;;1.05;0.70;;;13.40;98.80;;;;;;6058524;23;20065;-75
2022/06/15 01:21:35;;;;;;;0.68;0.68;;;13.50;98.90;;;;;;6058998;23;20097;-75
2022/06/15 01:24:26;;;;;;;0.60;0.60;;;13.50;99.30;;;;;;6058105;23;20003;-75
2022/06/15 01:27:25;;;;;;;1.35;0.50;;;13.50;99.40;;;;;;6060040;23;20021;-76
2022/06/15 01:30:06;;;;;;;0.68;0.57;;;13.50;99.70;;;;;;6058315;23;20021;-76
2022/06/15 01:33:09;;;;;;;2.90;0.70;;;13.40;98.90;;;;;;6058658;23;20083;-75
2022/06/15 01:35:35;;;;;;;1.98;0.73;;;13.20;99.40;;;;;;6057668;23;20026;-76
2022/06/15 01:38:31;;;;;;;1.10;0.63;;;13.10;99.70;;;;;;6054733;23;20022;-76
2022/06/15 01:41:07;;;;;;;0.80;0.60;;;13.00;99.70;;;;;;6058527;23;20062;-75
2022/06/15 01:43:39;;;;;;;2.20;0.93;;;13.00;99.70;;;;;;6056641;23;20594;-75
2022/06/15 01:46:06;;;;;;;1.50;0.70;;;12.90;99.80;;;;;;6056837;23;20014;-76
2022/06/15 01:48:33;;;;;;;0.70;0.70;;;12.80;99.90;;;;;;6054641;23;20082;-75
2022/06/15 01:51:04;;;;;;;2.15;0.68;;;12.80;99.90;;;;;;6058169;23;20039;-75
2022/06/15 01:53:36;;;;;;;1.00;0.70;;;12.90;99.90;;;;;;6058831;23;20088;-76
2022/06/15 01:56:23;;;;;;;1.40;0.75;;;12.90;99.90;;;;;;6033423;23;20006;-75
2022/06/15 01:58:55;;;;;;;3.15;0.80;;;12.80;99.90;;;;;;6033234;23;20006;-75
2022/06/15 02:01:28;;;;;;;;;;;12.90;99.90;;;;;;6056907;23;20101;-75
2022/06/15 02:03:59;;;;;;;0.85;0.80;;;12.80;99.90;;;;;;6055267;23;19912;-75
2022/06/15 02:06:39;;;;;;;1.92;0.57;;;12.80;99.90;;;;;;6056513;23;20003;-75
2022/06/15 02:09:12;;;;;;;1.65;0.63;;;12.80;99.90;;;;;;6033369;23;20042;-75
2022/06/15 02:11:40;;;;;;;3.33;0.85;;;12.70;99.90;;;;;;6056922;23;20011;-75
2022/06/15 02:14:08;;;;;;;0.70;0.70;;;12.80;99.90;;;;;;6056452;23;20548;-76
2022/06/15 02:16:46;;;;;;;0.88;0.70;;;12.90;99.90;;;;;;6056430;23;20037;-76
2022/06/15 02:19:16;;;;;;;0.70;0.60;;;13.00;99.90;;;;;;6056117;23;20007;-76
2022/06/15 02:21:44;;;;;;;1.80;0.90;;;12.90;99.90;;;;;;6056792;23;20077;-76
2022/06/15 02:24:12;;;;;;;1.63;0.60;;;12.90;99.90;;;;;;6054996;23;20003;-76
2022/06/15 02:26:39;;;;;;;0.85;0.60;;;12.80;99.90;;;;;;6056467;23;20038;-76
2022/06/15 02:29:14;;;;;;;1.20;0.80;;;12.70;99.90;;;;;;6057097;23;20019;-76
2022/06/15 02:31:41;;;;;;;0.63;0.63;;;12.60;99.90;;;;;;6057056;23;20090;-75
2022/06/15 02:34:07;;;;;;;1.10;0.80;;;12.60;99.90;;;;;;6056494;23;20006;-75
2022/06/15 02:36:34;;;;;;;1.30;0.70;;;12.60;99.90;;;;;;6054067;23;20066;-75
2022/06/15 02:39:00;;;;;;;1.30;0.77;;;12.60;99.90;;;;;;6031888;23;20014;-76
2022/06/15 02:41:27;;;;;;;0.88;0.88;;;12.60;99.90;;;;;;6056110;23;20003;-76
2022/06/15 02:43:54;;;;;;;4.68;1.20;;;12.60;99.90;;;;;;6032419;23;20074;-76
2022/06/15 02:46:22;;;;;;;1.33;0.85;;;12.60;99.90;;;;;;6055967;23;20273;-75
2022/06/15 02:48:48;;;;;;;1.65;0.60;;;12.60;99.90;;;;;;6054050;23;19995;-76
2022/06/15 02:51:22;;;;;;;1.55;0.60;;;12.60;99.90;;;;;;6055940;23;20044;-75
2022/06/15 02:53:50;;;;;;;1.50;0.70;;;12.50;99.90;;;;;;6055614;23;20098;-76
2022/06/15 02:56:19;;;;;;;2.05;0.63;;;12.50;99.90;;;;;;6060885;23;20009;-75
2022/06/15 02:58:47;;;;;;;0.93;0.90;;;12.40;99.90;;;;;;6067542;23;20022;-75
2022/06/15 03:01:13;;;;;;;2.70;0.90;;;12.50;99.90;;;;;;6069233;23;20007;-76
2022/06/15 03:03:40;;;;;;;16.88;1.27;;;12.50;99.90;;;;;;6067772;23;20093;-75
2022/06/15 03:06:14;;;;;;;4.68;0.93;;;12.50;99.90;;;;;;6069074;23;20058;-74
2022/06/15 03:08:39;;;;;;;4.13;0.77;;;12.60;99.90;;;;;;6063723;23;20022;-74
2022/06/15 03:11:05;;;;;;;2.08;1.10;;;12.60;99.90;;;;;;6063797;23;20011;-75
2022/06/15 03:13:31;;;;;;;2.53;0.93;;;12.60;99.90;;;;;;6069707;23;20003;-75
2022/06/15 03:15:58;;;;;;;2.67;0.90;;;12.50;99.90;;;;;;6069236;23;20065;-75
2022/06/15 03:18:28;;;;;;;4.97;1.42;;;12.50;99.90;;;;;;6066514;23;20267;-74
2022/06/15 03:20:58;;;;;;;5.93;1.05;;;12.60;99.90;;;;;;6067886;23;20066;-76
2022/06/15 03:23:24;;;;;;;2.65;1.30;;;12.70;99.90;;;;;;6069906;23;20314;-76
2022/06/15 03:25:58;;;;;;;7.22;1.30;;;12.70;99.90;;;;;;6067170;23;20146;-76
2022/06/15 03:28:25;;;;;;;1.15;0.98;;;12.70;99.90;;;;;;6066301;23;20017;-77
2022/06/15 03:30:52;;;;;;;1.42;0.70;;;12.80;99.90;;;;;;6070991;23;20011;-76
2022/06/15 03:33:18;;;;;;;1.25;0.70;;;12.80;99.90;;;;;;6069499;23;20014;-76
2022/06/15 03:35:45;;;;;;;0.80;0.80;;;12.70;99.90;;;;;;6069224;23;20034;-76
2022/06/15 03:38:11;;;;;;;1.38;0.60;;;12.60;99.90;;;;;;6067565;23;20003;-77
2022/06/15 03:40:39;;;;;;;1.58;0.60;;;12.60;99.90;;;;;;6060069;23;20003;-75
2022/06/15 03:43:05;;;;;;;1.33;0.90;;;12.60;99.90;;;;;;6059085;23;20007;-75
2022/06/15 03:45:32;;;;;;;4.88;0.90;;;12.60;99.90;;;;;;6059434;23;20003;-75
2022/06/15 03:47:59;;;;;;;0.75;0.70;;;12.60;99.90;;;;;;6054302;23;20550;-76
2022/06/15 03:50:27;;;;;;;3.15;1.08;;;12.70;99.90;;;;;;6031273;23;20511;-76
2022/06/15 03:52:53;;;;;;;0.80;0.80;;;12.80;99.90;;;;;;6060774;23;20473;-77
2022/06/15 03:55:20;;;;;;;7.03;1.10;;;12.80;99.90;;;;;;6055945;23;20064;-77
2022/06/15 03:57:47;;;;;;;2.60;0.80;;;12.80;99.90;;;;;;6057201;23;20058;-77
2022/06/15 04:00:15;;;;;;;3.33;1.05;;;12.90;99.90;;;;;;6055845;23;20010;-77
2022/06/15 04:02:40;;;;;;;1.60;1.10;;;13.00;99.90;;;;;;6057252;23;20014;-77
2022/06/15 04:05:07;;;;;;;1.67;1.23;;;13.00;99.90;;;;;;6057060;23;20018;-77
2022/06/15 04:10:17;;;;;;;1.70;0.90;;;13.20;99.90;;;;;;6058732;23;20067;-77
2022/06/15 04:12:44;;;;;;;1.08;1.00;;;13.30;99.90;;;;;;6057667;23;20623;-77
2022/06/15 04:15:10;;;;;;;2.72;1.20;;;13.40;99.90;;;;;;6031469;23;20014;-78
2022/06/15 04:17:37;;;;;;;1.70;1.10;;;13.50;99.90;;;;;;6055476;23;20429;-77
2022/06/15 04:22:47;;;;;;;3.67;1.33;;;13.80;99.90;;;;;;6059403;23;20353;-77
2022/06/15 04:25:13;;;;;;;3.00;1.20;;;13.90;99.90;;;;;;6057352;23;20007;-77
2022/06/15 04:27:39;;;;;;;6.22;1.33;;;13.90;99.90;;;;;;6057451;23;20042;-78
2022/06/15 04:30:05;;;;;;;2.00;1.02;;;14.10;99.90;;;;;;6059159;23;20023;-80
2022/06/15 04:32:30;;;;;;;2.70;1.27;;;14.20;99.90;;;;;;6029205;23;20003;-79
2022/06/15 04:34:56;;;;;;;3.95;1.70;;;14.30;99.90;;;;;;6057268;23;20003;-79
2022/06/15 04:37:22;;;;;;;1.98;1.20;;;14.40;99.90;;;;;;6057662;23;20011;-79
2022/06/15 04:39:48;;;;;;;3.63;1.30;;;14.40;99.90;;;;;;6058721;23;20007;-79
2022/06/15 04:42:14;;;;;;;1.02;0.90;;;14.50;99.90;;;;;;6056540;23;20010;-80
2022/06/15 04:44:39;;;;;;;3.35;1.10;;;14.50;99.90;;;;;;6055482;23;20003;-73
2022/06/15 04:47:05;;;;;;;2.20;0.93;;;14.70;99.90;;;;;;6026977;23;20030;-76
2022/06/15 04:49:31;;;;;;;7.30;1.23;;;14.70;99.90;;;;;;6057049;23;20104;-80
2022/06/15 04:51:57;;;;;;;1.60;1.10;;;14.80;99.90;;;;;;6055910;23;20074;-79
2022/06/15 04:54:23;;;;;;;4.93;1.08;;;14.90;99.90;;;;;;6057162;23;20038;-80
2022/06/15 04:56:48;;;;;;;2.47;1.30;;;14.90;99.90;;;;;;6056086;23;20078;-80
2022/06/15 04:59:15;;;;;;;2.58;1.27;;;15.00;99.90;;;;;;6057132;23;20007;-78
2022/06/15 05:01:41;;;;;;;2.65;1.20;;;15.20;99.90;;;;;;6057252;23;20081;-77
2022/06/15 05:04:06;;;;;;;4.75;1.25;;;15.30;99.90;;;;;;6055136;23;20006;-75
2022/06/15 05:06:39;;;;;;;3.08;1.17;;;15.40;99.90;;;;;;6057302;23;20011;-74
2022/06/15 05:09:06;;;;;;;4.35;1.00;;;15.50;99.90;;;;;;6053873;23;20003;-80
2022/06/15 05:11:32;;;;;;;1.38;1.10;;;15.60;99.90;;;;;;6058026;23;20014;-80
2022/06/15 05:13:58;;;;;;;3.70;1.25;;;15.70;99.90;;;;;;6056909;23;20014;-82
2022/06/15 05:16:24;;;;;;;3.85;1.30;;;15.80;99.90;;;;;;6057269;23;20017;-82
2022/06/15 05:18:50;;;;;;;1.58;0.93;;;16.00;99.90;;;;;;6054817;23;20303;-79
2022/06/15 05:21:17;;;;;;;2.63;1.23;;;16.10;99.90;;;;;;6056093;23;20002;-78
2022/06/15 05:23:42;;;;;;;2.58;1.10;;;16.20;99.90;;;;;;6057859;23;20846;-78
2022/06/15 05:26:08;;;;;;;2.25;1.00;;;16.20;99.90;;;;;;6056550;23;20013;-79
2022/06/15 05:28:34;;;;;;;6.63;1.17;;;16.30;99.90;;;;;;6056918;23;20666;-79
2022/06/15 05:31:09;;;;;;;5.65;1.00;;;16.50;99.90;;;;;;6057858;23;20014;-79
2022/06/15 05:33:36;;;;;;;2.55;1.35;;;16.70;99.90;;;;;;6058147;23;20130;-82
2022/06/15 05:36:08;;;;;;;3.28;1.20;;;16.90;99.50;;;;;;6059144;23;20038;-82
2022/06/15 05:38:35;;;;;;;4.38;1.10;;;17.00;99.20;;;;;;6058157;23;20282;-81
2022/06/15 05:41:01;;;;;;;3.63;1.10;;;17.00;99.60;;;;;;6058780;23;20010;-80
2022/06/15 05:43:26;;;;;;;1.38;0.80;;;17.10;99.20;;;;;;6058057;23;20460;-81
2022/06/15 05:45:52;;;;;;;5.10;1.05;;;17.30;99.10;;;;;;6058596;23;20443;-82
2022/06/15 05:48:18;;;;;;;2.33;1.10;;;17.40;98.50;;;;;;6059386;23;20011;-83
2022/06/15 05:50:43;;;;;;;3.10;0.98;;;17.50;98.60;;;;;;6059620;23;20019;-83
2022/06/15 05:53:09;;;;;;;3.75;1.00;;;17.60;98.10;;;;;;6059241;23;20086;-83
2022/06/15 05:55:35;;;;;;;4.28;1.25;;;17.60;98.40;;;;;;6058706;23;20018;-82
2022/06/15 05:58:01;;;;;;;3.92;1.17;;;17.70;98.20;;;;;;6059679;23;19999;-83
2022/06/15 06:00:27;;;;;;;1.92;1.17;;;17.70;98.60;;;;;;6058123;23;20125;-80
2022/06/15 06:02:53;;;;;;;1.48;0.95;;;17.80;98.30;;;;;;6057779;23;20130;-82
2022/06/15 06:05:18;;;;;;;4.05;0.82;;;17.80;98.30;;;;;;6059735;23;20007;-82
2022/06/15 06:07:44;;;;;;;1.05;0.73;;;17.90;98.20;;;;;;6059503;23;20010;-79
2022/06/15 06:10:10;;;;;;;1.20;0.88;;;18.00;98.20;;;;;;6057939;23;20322;-79
2022/06/15 06:12:35;;;;;;;3.65;1.13;;;18.10;97.90;;;;;;6059059;23;20337;-82
2022/06/15 06:15:01;;;;;;;1.27;1.00;;;18.20;97.40;;;;;;6059918;23;20093;-81
2022/06/15 06:17:27;;;;;;;1.80;1.02;;;18.30;97.50;;;;;;6059447;23;20009;-82
2022/06/15 06:19:53;;;;;;;4.10;0.90;;;18.50;97.80;;;;;;6059141;23;20034;-82
2022/06/15 06:22:18;;;;;;;2.30;1.27;;;18.60;97.80;;;;;;6059807;23;20007;-82
2022/06/15 06:24:44;;;;;;;1.35;0.90;;;18.80;97.30;;;;;;6058753;23;20011;-81
2022/06/15 06:27:14;;;;;;;3.30;1.10;;;18.90;97.00;;;;;;6058506;23;20010;-82
2022/06/15 06:29:40;;;;;;;1.17;0.80;;;19.00;96.70;;;;;;6060149;23;20077;-82
2022/06/15 06:32:09;;;;;;;3.95;0.90;;;19.10;96.80;;;;;;6056385;23;20082;-83
2022/06/15 06:34:35;;;;;;;3.58;1.13;;;19.20;96.40;;;;;;6059985;23;20014;-82
2022/06/15 06:37:02;;;;;;;2.13;0.88;;;19.30;95.80;;;;;;6060750;23;19999;-83
2022/06/15 06:39:30;;;;;;;3.72;1.13;;;19.30;94.10;;;;;;6057952;23;20003;-81
2022/06/15 06:41:57;;;;;;;4.05;0.85;;;19.30;94.30;;;;;;6030325;23;20391;-82
2022/06/15 06:44:23;;;;;;;1.55;0.90;;;19.40;95.00;;;;;;6054242;23;20087;-83
2022/06/15 06:46:50;;;;;;;2.22;0.80;;;19.50;92.80;;;;;;6054788;23;20019;-82
2022/06/15 06:49:16;;;;;;;1.33;1.15;;;19.60;92.80;;;;;;6056160;23;20013;-80
2022/06/15 06:51:44;;;;;;;1.20;1.00;;;19.80;91.60;;;;;;6055915;23;20389;-82
2022/06/15 06:54:12;;;;;;;6.75;0.93;;;19.80;91.30;;;;;;6031282;23;20062;-82
2022/06/15 06:56:38;;;;;;;2.85;1.00;;;19.90;91.40;;;;;;6056781;23;20010;-78
2022/06/15 06:59:06;;;;;;;3.10;0.85;;;20.00;91.50;;;;;;6056117;23;20743;-78
2022/06/15 07:01:33;;;;;;;8.02;1.10;;;20.10;91.70;;;;;;6051962;23;20447;-77
2022/06/15 07:03:58;;;;;;;2.05;1.10;;;20.20;91.80;;;;;;6056401;23;20026;-80
2022/06/15 07:06:24;;;;;;;2.58;0.80;;;20.30;91.30;;;;;;6056187;23;20441;-80
2022/06/15 07:08:50;;;;;;;2.58;0.80;;;20.40;90.70;;;;;;6051500;23;20003;-80
2022/06/15 07:11:17;;;;;;;6.05;0.95;;;20.40;89.30;;;;;;6056704;23;20102;-80
2022/06/15 07:13:46;;;;;;;1.40;0.80;;;20.40;87.80;;;;;;6030495;23;20847;-75
2022/06/15 07:16:14;;;;;;;3.22;0.98;;;20.40;87.10;;;;;;6031856;23;20013;-78
2022/06/15 07:18:39;;;;;;;1.75;0.93;;;20.40;87.10;;;;;;6057426;23;20041;-79
2022/06/15 07:21:11;;;;;;;2.38;0.88;;;20.50;87.50;;;;;;6052848;23;20517;-75
2022/06/15 07:23:38;;;;;;;2.63;1.10;;;20.50;82.90;;;;;;6052609;23;19995;-78
2022/06/15 07:26:05;;;;;;;0.98;0.77;;;20.40;85.50;;;;;;6051636;23;20037;-82
2022/06/15 07:28:32;;;;;;;2.83;0.95;;;20.60;84.60;;;;;;6057548;23;20027;-79
2022/06/15 07:30:57;;;;;;;2.90;0.85;;;20.70;83.70;;;;;;6055215;23;20011;-81
2022/06/15 07:33:23;;;;;;;1.05;0.70;;;20.70;82.10;;;;;;6055868;23;20011;-82
2022/06/15 07:35:49;;;;;;;0.88;0.70;;;20.70;79.00;;;;;;6031603;23;20111;-80
2022/06/15 07:38:15;;;;;;;1.25;0.75;;;20.70;82.50;;;;;;6023331;23;20724;-79
2022/06/15 07:40:41;;;;;;;0.70;0.70;;;20.70;77.40;;;;;;6030439;23;20010;-79
2022/06/15 07:43:07;;;;;;;3.20;0.90;;;20.70;78.80;;;;;;6056785;23;20003;-80
2022/06/15 07:45:33;;;;;;;1.13;0.68;;;20.80;78.00;;;;;;6054399;23;20011;-75
2022/06/15 07:50:43;;;;;;;1.23;0.63;;;20.90;78.00;;;;;;6053107;23;20029;-77
2022/06/15 07:53:13;;;;;;;1.85;1.05;;;21.00;80.30;;;;;;6052501;23;20010;-77
2022/06/15 07:55:42;;;;;;;2.33;0.80;;;21.10;78.80;;;;;;6046330;23;20007;-76
2022/06/15 07:58:10;;;;;;;2.30;0.77;;;21.30;78.10;;;;;;6026566;23;20059;-74
2022/06/15 08:00:38;;;;;;;1.15;0.60;;;21.30;76.90;;;;;;6055760;23;20019;-73
2022/06/15 08:03:04;;;;;;;1.13;0.77;;;21.30;76.50;;;;;;6056206;23;20021;-73
2022/06/15 08:05:35;;;;;;;2.22;1.10;;;21.30;77.40;;;;;;6054037;23;20635;-76
2022/06/15 08:08:02;;;;;;;1.92;0.85;;;21.30;76.60;;;;;;6028274;23;20011;-77
2022/06/15 08:10:29;;;;;;;2.60;1.00;;;21.40;79.40;;;;;;6055299;23;20070;-76
2022/06/15 08:12:55;;;;;;;1.67;0.95;;;21.40;76.60;;;;;;6052824;23;20117;-74
2022/06/15 08:15:21;;;;;;;2.17;0.80;;;21.40;74.40;;;;;;6028220;23;20416;-75
2022/06/15 08:17:49;;;;;;;1.83;0.70;;;21.40;77.80;;;;;;6054308;23;20723;-75
2022/06/15 08:20:23;;;;;;;0.80;0.60;;;21.50;74.40;;;;;;6054890;23;20047;-76
2022/06/15 08:22:51;;;;;;;2.92;0.80;;;21.60;74.50;;;;;;6054843;23;20073;-76
2022/06/15 08:25:22;;;;;;;3.60;0.90;;;21.60;76.30;;;;;;6053693;23;20082;-79
2022/06/15 08:27:48;;;;;;;2.08;0.70;;;21.70;72.20;;;;;;6052449;23;20006;-76
2022/06/15 08:30:14;;;;;;;1.55;0.80;;;21.60;74.10;;;;;;6048893;23;20015;-75
2022/06/15 08:32:43;;;;;;;2.13;0.82;;;21.60;75.90;;;;;;6054188;23;20082;-75
2022/06/15 08:35:09;;;;;;;2.47;0.80;;;21.70;76.80;;;;;;6054805;23;20514;-75
2022/06/15 08:37:36;;;;;;;4.68;0.98;;;21.70;74.40;;;;;;6052823;23;20054;-75
2022/06/15 08:40:02;;;;;;;0.93;0.55;;;21.70;75.10;;;;;;6050487;23;20018;-77
2022/06/15 08:42:40;;;;;;;1.75;0.77;;;21.70;73.30;;;;;;6048389;23;20054;-77
2022/06/15 08:45:43;;;;;;;1.98;0.80;;;21.70;75.70;;;;;;6053134;23;20011;-75
2022/06/15 08:48:27;;;;;;;1.45;0.80;;;21.70;75.80;;;;;;6048314;23;20022;-77
2022/06/15 08:50:57;;;;;;;2.65;0.70;;;21.80;73.80;;;;;;6051914;23;20018;-77
2022/06/15 08:53:45;;;;;;;4.03;0.50;;;21.80;74.30;;;;;;6051685;23;20007;-75
2022/06/15 08:56:21;;;;;;;1.13;0.82;;;21.90;74.70;;;;;;6054697;23;20468;-76
2022/06/15 08:58:59;;;;;;;1.10;0.68;;;22.00;75.30;;;;;;6051693;23;20034;-75
2022/06/15 09:01:40;;;;;;;6.38;0.88;;;22.10;72.20;;;;;;6055155;23;20017;-78
2022/06/15 09:04:18;;;;;;;1.17;0.80;;;22.00;72.60;;;;;;6053708;23;20078;-76
2022/06/15 09:06:56;;;;;;;4.85;0.95;;;22.10;73.80;;;;;;6047581;23;20078;-75
2022/06/15 09:09:45;;;;;;;12.43;3.58;;;22.20;77.30;;;;;;6045049;23;20254;-79
2022/06/15 09:12:53;;;;;;;3.13;1.30;;;22.30;73.80;;;;;;6028193;23;20104;-76
2022/06/15 09:15:47;;;;;;;1.38;0.93;;;22.40;74.80;;;;;;6056908;23;20003;-77
2022/06/15 09:18:23;;;;;;;4.40;1.00;;;22.50;74.00;;;;;;6029372;23;20018;-76
2022/06/15 09:21:02;;;;;;;1.67;0.85;;;22.60;76.10;;;;;;6058055;23;20396;-75
2022/06/15 09:24:02;;;;;;;2.90;0.80;;;22.70;73.80;;;;;;6045039;23;20085;-75
2022/06/15 09:26:34;;;;;;;1.27;0.85;;;22.70;74.80;;;;;;6038570;23;20058;-76
2022/06/15 09:29:08;;;;;;;1.15;0.52;;;22.60;74.90;;;;;;6027890;23;20015;-75
2022/06/15 09:31:43;;;;;;;2.70;0.70;;;22.80;74.80;;;;;;6049547;23;20082;-75
2022/06/15 09:34:15;;;;;;;1.27;0.57;;;22.70;70.80;;;;;;6055075;23;19999;-75
2022/06/15 09:36:51;;;;;;;2.03;0.93;;;22.70;75.10;;;;;;6048609;23;20011;-75
2022/06/15 09:39:19;;;;;;;0.80;0.65;;;22.70;70.30;;;;;;6050816;23;20034;-75
2022/06/15 09:41:58;;;;;;;1.02;0.60;;;22.70;71.70;;;;;;6053281;23;20007;-76
2022/06/15 09:44:50;;;;;;;2.05;0.60;;;22.70;73.10;;;;;;6055419;23;20740;-76
2022/06/15 09:47:45;;;;;;;2.53;0.85;;;22.70;76.00;;;;;;6057206;23;20550;-76
2022/06/15 09:50:43;;;;;;;2.47;0.70;;;22.90;75.60;;;;;;6032025;23;20015;-77
2022/06/15 09:53:29;;;;;;;3.17;0.80;;;23.00;74.60;;;;;;6049173;23;20007;-80
2022/06/15 09:55:59;;;;;;;1.35;0.73;;;23.00;73.30;;;;;;6057279;23;20007;-77
2022/06/15 09:58:30;;;;;;;6.55;1.20;;;23.00;71.50;;;;;;6058393;23;20006;-78
2022/06/15 10:00:55;;;;;;;1.85;0.70;;;23.00;75.30;;;;;;6054659;23;20074;-76
2022/06/15 10:03:26;;;;;;;8.13;1.58;;;23.00;72.20;;;;;;6054768;23;20011;-78
2022/06/15 10:05:56;;;;;;;2.35;0.85;;;23.10;72.20;;;;;;6054684;23;20054;-76
2022/06/15 10:08:22;;;;;;;1.67;0.95;;;23.00;73.20;;;;;;6056756;23;20010;-76
2022/06/15 10:10:55;;;;;;;0.75;0.55;;;23.10;73.10;;;;;;6056444;23;20018;-75
2022/06/15 10:13:21;;;;;;;2.58;0.80;;;23.20;71.70;;;;;;6052753;23;20258;-73
2022/06/15 10:15:57;;;;;;;0.75;0.60;;;23.10;71.30;;;;;;6055865;23;20068;-74
2022/06/15 10:18:35;;;;;;;2.10;0.60;;;23.10;70.30;;;;;;6054124;23;20057;-75
2022/06/15 10:21:06;;;;;;;1.63;0.63;;;23.10;70.50;;;;;;6057714;23;20030;-75
2022/06/15 10:23:51;;;;;;;2.17;0.68;;;23.10;69.90;;;;;;6052882;23;20007;-73
2022/06/15 10:26:47;;;;;;;7.95;0.80;;;23.00;69.90;;;;;;6052411;23;20030;-74
2022/06/15 10:29:16;;;;;;;2.92;0.65;;;23.10;73.70;;;;;;6056179;23;20010;-76
2022/06/15 10:31:55;;;;;;;1.98;0.85;;;23.30;71.60;;;;;;6053824;23;20010;-76
2022/06/15 10:34:25;;;;;;;2.13;0.70;;;23.30;69.30;;;;;;6052076;23;20646;-75
2022/06/15 10:36:57;;;;;;;1.58;0.70;;;23.30;71.60;;;;;;6055182;23;20082;-76
2022/06/15 10:39:28;;;;;;;2.83;0.85;;;23.50;71.90;;;;;;6052943;23;20015;-76
2022/06/15 10:42:24;;;;;;;2.20;0.85;;;23.60;68.40;;;;;;6050060;23;20002;-77
2022/06/15 10:45:24;;;;;;;4.97;0.73;;;23.60;69.00;;;;;;6053883;23;20100;-79
2022/06/15 10:47:58;;;;;;;4.28;0.50;;;23.60;67.00;;;;;;6034825;23;20413;-74
2022/06/15 10:50:46;;;;;;;3.85;0.70;;;23.60;67.40;;;;;;6051985;23;20014;-79
2022/06/15 10:53:35;;;;;;;3.45;0.73;;;23.70;67.20;;;;;;6056196;23;20013;-78
2022/06/15 11:04:51;;;;;;;1.13;0.60;;;23.50;65.80;;;;;;6054164;23;20098;-75
2022/06/15 11:07:23;;;;;;;1.77;0.85;;;23.50;66.80;;;;;;6053471;23;20640;-74
2022/06/15 11:09:55;;;;;;;2.55;0.65;;;23.50;68.30;;;;;;6031045;23;20086;-72
2022/06/15 11:12:23;;;;;;;;;;;23.60;66.90;;;;;;6057149;23;20003;-74
2022/06/15 11:14:51;;;;;;;1.90;0.70;;;23.70;68.00;;;;;;6050299;23;19906;-74
2022/06/15 11:20:16;;;;;;;1.83;0.70;;;23.70;65.00;;;;;;6057338;23;20032;-71
2022/06/15 11:22:42;;;;;;;2.95;1.00;;;23.70;67.20;;;;;;6053603;23;20006;-70
2022/06/15 11:25:13;;;;;;;2.95;0.82;;;23.80;68.30;;;;;;6047854;23;20349;-74
2022/06/15 11:27:48;;;;;;;3.20;0.80;;;23.90;66.60;;;;;;6048727;23;20017;-71
2022/06/15 11:30:39;;;;;;;2.00;0.85;;;23.90;63.40;;;;;;6052260;23;20114;-70
2022/06/15 11:33:16;;;;;;;1.85;0.68;;;23.70;65.70;;;;;;6052424;23;20310;-70
2022/06/15 11:36:07;;;;;;;1.63;0.60;;;23.70;65.50;;;;;;6058243;23;20082;-72
2022/06/15 11:38:45;;;;;;;1.98;0.70;;;23.80;66.70;;;;;;6055176;23;20572;-71
2022/06/15 11:41:30;;;;;;;1.13;0.50;;;23.90;64.60;;;;;;6052811;23;20002;-71
2022/06/15 11:43:57;;;;;;;4.65;1.10;;;23.80;64.70;;;;;;6056033;23;20006;-70
2022/06/15 11:46:43;;;;;;;5.80;3.13;;;23.80;65.10;;;;;;6050072;23;20023;-70
2022/06/15 11:49:18;;;;;;;3.72;2.83;;;23.90;67.50;;;;;;6053230;23;20018;-70
2022/06/15 11:51:47;;;;;;;3.22;1.73;;;24.10;68.60;;;;;;6053145;23;20015;-79
2022/06/15 11:54:31;;;;;;;2.70;1.25;;;24.20;61.60;;;;;;6030523;23;20011;-77
2022/06/15 11:57:09;;;;;;;10.27;8.85;;;24.10;64.10;;;;;;6057272;23;20003;-78
2022/06/15 12:00:08;;;;;;;7.90;5.30;;;24.10;66.70;;;;;;6048140;23;20423;-78
2022/06/15 12:03:26;;;;;;;8.25;7.18;;;24.30;67.10;;;;;;6044586;23;20046;-75
2022/06/15 12:06:22;;;;;;;4.45;2.90;;;24.50;64.10;;;;;;6005488;23;20111;-74
2022/06/15 12:09:02;;;;;;;2.20;1.98;;;24.40;59.30;;;;;;6055675;23;20136;-73
2022/06/15 12:14:46;;;;;;;6.50;4.67;;;24.20;64.20;;;;;;6057499;23;20025;-70
2022/06/15 12:17:29;;;;;;;5.10;3.75;;;24.30;63.20;;;;;;6056698;23;20003;-74
2022/06/15 12:20:14;;;;;;;4.25;3.45;;;24.40;65.10;;;;;;6052864;23;20071;-72
2022/06/15 12:22:46;;;;;;;2.90;1.90;;;24.50;63.50;;;;;;6054512;23;20018;-71
2022/06/15 12:25:32;;;;;;;5.20;4.22;;;24.60;62.80;;;;;;6054431;23;20017;-72
2022/06/15 12:28:22;;;;;;;2.90;1.98;;;24.60;64.30;;;;;;6051010;23;20029;-72
2022/06/15 12:30:55;;;;;;;1.55;0.55;;;24.70;61.80;;;;;;6055915;23;20011;-74
2022/06/15 12:33:39;;;;;;;3.85;1.63;;;24.60;59.70;;;;;;6051321;23;20003;-77
2022/06/15 12:36:29;;;;;;;1.70;1.10;;;24.50;63.30;;;;;;6053719;23;20011;-73
2022/06/15 12:39:16;;;;;;;3.80;1.48;;;24.60;63.10;;;;;;6053590;23;20016;-73
2022/06/15 12:44:51;;;;;;;1.45;0.70;;;24.40;58.70;;;;;;6056434;23;20844;-72
2022/06/15 12:47:18;;;;;;;2.58;2.10;;;24.20;58.90;;;;;;6048185;23;20023;-73
2022/06/15 12:50:08;;;;;;;4.25;0.93;;;24.20;60.90;;;;;;6052363;23;20692;-72
2022/06/15 12:53:04;;;;;;;2.47;2.22;;;24.20;59.10;;;;;;6054958;23;20009;-73
2022/06/15 12:56:07;;;;;;;1.65;1.25;;;24.30;63.10;;;;;;6055854;23;20192;-73
2022/06/15 12:59:22;;;;;;;1.33;1.23;;;24.50;59.00;;;;;;6058516;23;20561;-75
2022/06/15 13:01:57;;;;;;;0.95;0.73;;;24.60;61.60;;;;;;5993818;23;20094;-72
2022/06/15 13:05:09;;;;;;;1.90;1.60;;;24.70;58.50;;;;;;6056382;23;19998;-74
2022/06/15 13:07:38;;;;;;;4.13;0.50;;;24.60;61.10;;;;;;6048103;23;20062;-79
2022/06/15 13:10:06;;;;;;;0.93;0.45;;;24.70;60.30;;;;;;6055817;23;20109;-78
2022/06/15 13:12:51;;;;;;;0.70;0.40;;;24.80;61.20;;;;;;6057297;23;20021;-78
2022/06/15 13:15:35;;;;;;;0.47;0.30;;;24.90;59.30;;;;;;6053457;23;20019;-76
2022/06/15 13:18:09;;;;;;;1.30;0.50;;;24.80;56.30;;;;;;6058393;23;20014;-74
2022/06/15 13:21:01;;;;;;;0.98;0.50;;;24.70;56.30;;;;;;6057930;23;20015;-79
2022/06/15 13:23:32;;;;;;;1.00;0.30;;;24.60;59.50;;;;;;6057843;23;19995;-76
2022/06/15 13:26:13;;;;;;;1.38;0.43;;;24.70;57.30;;;;;;6052706;23;20009;-76
2022/06/15 13:28:45;;;;;;;1.20;0.40;;;24.80;58.50;;;;;;6030451;23;20420;-81
2022/06/15 13:31:31;;;;;;;2.25;0.50;;;24.90;56.70;;;;;;6053362;23;20074;-79
2022/06/15 13:34:00;;;;;;;3.70;1.15;;;25.00;59.30;;;;;;6053749;23;20002;-80
2022/06/15 13:36:26;;;;;;;2.97;0.50;;;25.10;57.50;;;;;;6053228;23;20957;-77
2022/06/15 13:38:53;;;;;;;0.73;0.40;;;25.10;58.60;;;;;;6052571;23;20054;-75
2022/06/15 13:41:25;;;;;;;1.30;0.47;;;25.20;58.20;;;;;;6056307;23;20504;-78